sensor_id;sensor_type;location;lat;lon;timestamp;P1;durP1;ratioP1;P2;durP2;ratioP2
13720;SDS011;6932;51.438;5.470;2024-01-16T00:01:45;2.90;;;1.70;;
13720;SDS011;6932;51.438;5.470;2024-01-16T00:04:11;4.67;;;2.10;;
13720;SDS011;6932;51.438;5.470;2024-01-16T00:06:40;2.97;;;1.90;;
13720;SDS011;6932;51.438;5.470;2024-01-16T00:09:06;2.90;;;2.00;;
13720;SDS011;6932;51.438;5.470;2024-01-16T00:11:39;3.17;;;1.80;;
13720;SDS011;6932;51.438;5.470;2024-01-16T00:14:06;3.63;;;2.30;;
13720;SDS011;6932;51.438;5.470;2024-01-16T00:16:32;5.30;;;2.50;;
13720;SDS011;6932;51.438;5.470;2024-01-16T00:18:57;3.73;;;2.40;;
13720;SDS011;6932;51.438;5.470;2024-01-16T00:21:23;4.23;;;2.40;;
13720;SDS011;6932;51.438;5.470;2024-01-16T00:23:49;3.93;;;2.43;;
13720;SDS011;6932;51.438;5.470;2024-01-16T00:26:21;3.87;;;2.57;;
13720;SDS011;6932;51.438;5.470;2024-01-16T00:28:48;4.80;;;2.60;;
13720;SDS011;6932;51.438;5.470;2024-01-16T00:31:13;4.63;;;2.50;;
13720;SDS011;6932;51.438;5.470;2024-01-16T00:33:39;4.97;;;2.70;;
13720;SDS011;6932;51.438;5.470;2024-01-16T00:36:05;5.10;;;2.87;;
13720;SDS011;6932;51.438;5.470;2024-01-16T00:38:34;5.60;;;3.27;;
13720;SDS011;6932;51.438;5.470;2024-01-16T00:41:00;6.67;;;2.90;;
13720;SDS011;6932;51.438;5.470;2024-01-16T00:43:26;6.07;;;3.17;;
13720;SDS011;6932;51.438;5.470;2024-01-16T00:45:52;4.63;;;2.50;;
13720;SDS011;6932;51.438;5.470;2024-01-16T00:48:17;5.37;;;2.87;;
13720;SDS011;6932;51.438;5.470;2024-01-16T00:50:45;4.70;;;2.30;;
13720;SDS011;6932;51.438;5.470;2024-01-16T00:53:14;3.20;;;2.03;;
13720;SDS011;6932;51.438;5.470;2024-01-16T00:55:41;4.30;;;2.30;;
13720;SDS011;6932;51.438;5.470;2024-01-16T00:58:07;4.30;;;2.30;;
13720;SDS011;6932;51.438;5.470;2024-01-16T01:00:33;5.07;;;2.10;;
13720;SDS011;6932;51.438;5.470;2024-01-16T01:03:00;4.37;;;1.90;;
13720;SDS011;6932;51.438;5.470;2024-01-16T01:05:26;4.63;;;1.90;;
13720;SDS011;6932;51.438;5.470;2024-01-16T01:07:56;5.53;;;1.90;;
13720;SDS011;6932;51.438;5.470;2024-01-16T01:10:22;4.10;;;1.93;;
13720;SDS011;6932;51.438;5.470;2024-01-16T01:12:49;3.03;;;1.80;;
13720;SDS011;6932;51.438;5.470;2024-01-16T01:15:17;6.00;;;2.30;;
13720;SDS011;6932;51.438;5.470;2024-01-16T01:17:42;4.87;;;2.03;;
13720;SDS011;6932;51.438;5.470;2024-01-16T01:20:08;2.93;;;1.80;;
13720;SDS011;6932;51.438;5.470;2024-01-16T01:22:37;4.57;;;2.00;;
13720;SDS011;6932;51.438;5.470;2024-01-16T01:25:03;2.67;;;2.00;;
13720;SDS011;6932;51.438;5.470;2024-01-16T01:27:29;4.27;;;1.93;;
13720;SDS011;6932;51.438;5.470;2024-01-16T01:29:55;5.00;;;1.80;;
13720;SDS011;6932;51.438;5.470;2024-01-16T01:32:20;5.20;;;2.33;;
13720;SDS011;6932;51.438;5.470;2024-01-16T01:34:46;4.20;;;2.00;;
13720;SDS011;6932;51.438;5.470;2024-01-16T01:37:12;2.87;;;1.70;;
13720;SDS011;6932;51.438;5.470;2024-01-16T01:39:39;3.83;;;1.73;;
13720;SDS011;6932;51.438;5.470;2024-01-16T01:42:05;5.03;;;1.90;;
13720;SDS011;6932;51.438;5.470;2024-01-16T01:44:30;2.70;;;1.60;;
13720;SDS011;6932;51.438;5.470;2024-01-16T01:46:56;4.07;;;1.57;;
13720;SDS011;6932;51.438;5.470;2024-01-16T01:49:23;3.13;;;1.40;;
13720;SDS011;6932;51.438;5.470;2024-01-16T01:51:51;2.97;;;1.40;;
13720;SDS011;6932;51.438;5.470;2024-01-16T01:54:17;4.17;;;2.10;;
13720;SDS011;6932;51.438;5.470;2024-01-16T01:56:46;2.87;;;1.60;;
13720;SDS011;6932;51.438;5.470;2024-01-16T01:59:17;2.90;;;1.57;;
13720;SDS011;6932;51.438;5.470;2024-01-16T02:01:47;2.77;;;1.63;;
13720;SDS011;6932;51.438;5.470;2024-01-16T02:04:17;3.33;;;1.60;;
13720;SDS011;6932;51.438;5.470;2024-01-16T02:06:45;2.53;;;1.60;;
13720;SDS011;6932;51.438;5.470;2024-01-16T02:09:11;2.73;;;1.30;;
13720;SDS011;6932;51.438;5.470;2024-01-16T02:11:41;6.33;;;1.60;;
13720;SDS011;6932;51.438;5.470;2024-01-16T02:14:08;3.83;;;1.50;;
13720;SDS011;6932;51.438;5.470;2024-01-16T02:16:35;4.33;;;1.60;;
13720;SDS011;6932;51.438;5.470;2024-01-16T02:19:06;3.03;;;1.33;;
13720;SDS011;6932;51.438;5.470;2024-01-16T02:21:39;1.90;;;1.33;;
13720;SDS011;6932;51.438;5.470;2024-01-16T02:24:16;2.87;;;1.43;;
13720;SDS011;6932;51.438;5.470;2024-01-16T02:26:44;3.03;;;1.50;;
13720;SDS011;6932;51.438;5.470;2024-01-16T02:29:10;2.73;;;1.70;;
13720;SDS011;6932;51.438;5.470;2024-01-16T02:31:36;3.30;;;1.60;;
13720;SDS011;6932;51.438;5.470;2024-01-16T02:34:02;2.73;;;1.83;;
13720;SDS011;6932;51.438;5.470;2024-01-16T02:36:29;3.70;;;1.93;;
13720;SDS011;6932;51.438;5.470;2024-01-16T02:38:55;3.63;;;1.50;;
13720;SDS011;6932;51.438;5.470;2024-01-16T02:41:21;4.00;;;1.70;;
13720;SDS011;6932;51.438;5.470;2024-01-16T02:43:47;1.87;;;1.47;;
13720;SDS011;6932;51.438;5.470;2024-01-16T02:46:14;2.80;;;1.57;;
13720;SDS011;6932;51.438;5.470;2024-01-16T02:48:40;4.33;;;1.63;;
13720;SDS011;6932;51.438;5.470;2024-01-16T02:51:07;4.27;;;1.50;;
13720;SDS011;6932;51.438;5.470;2024-01-16T02:53:34;3.03;;;1.40;;
13720;SDS011;6932;51.438;5.470;2024-01-16T02:56:00;3.87;;;1.60;;
13720;SDS011;6932;51.438;5.470;2024-01-16T02:58:28;2.97;;;1.50;;
13720;SDS011;6932;51.438;5.470;2024-01-16T03:00:55;2.10;;;1.20;;
13720;SDS011;6932;51.438;5.470;2024-01-16T03:03:22;3.43;;;1.40;;
13720;SDS011;6932;51.438;5.470;2024-01-16T03:05:49;2.97;;;1.60;;
13720;SDS011;6932;51.438;5.470;2024-01-16T03:08:15;4.33;;;1.40;;
13720;SDS011;6932;51.438;5.470;2024-01-16T03:10:41;2.40;;;1.30;;
13720;SDS011;6932;51.438;5.470;2024-01-16T03:13:07;2.23;;;1.23;;
13720;SDS011;6932;51.438;5.470;2024-01-16T03:15:33;2.50;;;1.57;;
13720;SDS011;6932;51.438;5.470;2024-01-16T03:17:59;2.67;;;1.60;;
13720;SDS011;6932;51.438;5.470;2024-01-16T03:20:26;2.93;;;1.60;;
13720;SDS011;6932;51.438;5.470;2024-01-16T03:22:52;3.37;;;2.00;;
13720;SDS011;6932;51.438;5.470;2024-01-16T03:25:19;2.93;;;2.07;;
13720;SDS011;6932;51.438;5.470;2024-01-16T03:27:46;6.53;;;2.60;;
13720;SDS011;6932;51.438;5.470;2024-01-16T03:30:12;4.90;;;2.80;;
13720;SDS011;6932;51.438;5.470;2024-01-16T03:32:38;6.00;;;3.50;;
13720;SDS011;6932;51.438;5.470;2024-01-16T03:35:04;7.37;;;3.97;;
13720;SDS011;6932;51.438;5.470;2024-01-16T03:37:31;7.60;;;3.60;;
13720;SDS011;6932;51.438;5.470;2024-01-16T03:39:57;9.17;;;4.60;;
13720;SDS011;6932;51.438;5.470;2024-01-16T03:42:23;8.10;;;4.40;;
13720;SDS011;6932;51.438;5.470;2024-01-16T03:44:49;11.13;;;4.80;;
13720;SDS011;6932;51.438;5.470;2024-01-16T03:47:15;9.03;;;4.30;;
13720;SDS011;6932;51.438;5.470;2024-01-16T03:49:41;8.27;;;4.67;;
13720;SDS011;6932;51.438;5.470;2024-01-16T03:52:06;8.63;;;4.70;;
13720;SDS011;6932;51.438;5.470;2024-01-16T03:54:32;8.67;;;4.40;;
13720;SDS011;6932;51.438;5.470;2024-01-16T03:56:58;7.57;;;4.30;;
13720;SDS011;6932;51.438;5.470;2024-01-16T03:59:23;9.20;;;4.87;;
13720;SDS011;6932;51.438;5.470;2024-01-16T04:01:49;10.23;;;5.37;;
13720;SDS011;6932;51.438;5.470;2024-01-16T04:04:15;8.80;;;4.53;;
13720;SDS011;6932;51.438;5.470;2024-01-16T04:06:41;10.23;;;4.70;;
13720;SDS011;6932;51.438;5.470;2024-01-16T04:09:08;8.97;;;4.40;;
13720;SDS011;6932;51.438;5.470;2024-01-16T04:11:34;8.43;;;4.40;;
13720;SDS011;6932;51.438;5.470;2024-01-16T04:14:01;11.07;;;4.37;;
13720;SDS011;6932;51.438;5.470;2024-01-16T04:16:27;10.27;;;4.20;;
13720;SDS011;6932;51.438;5.470;2024-01-16T04:18:53;9.10;;;4.30;;
13720;SDS011;6932;51.438;5.470;2024-01-16T04:21:19;10.20;;;4.40;;
13720;SDS011;6932;51.438;5.470;2024-01-16T04:23:44;9.47;;;4.57;;
13720;SDS011;6932;51.438;5.470;2024-01-16T04:26:11;7.87;;;4.23;;
13720;SDS011;6932;51.438;5.470;2024-01-16T04:28:36;7.67;;;4.27;;
13720;SDS011;6932;51.438;5.470;2024-01-16T04:31:02;10.33;;;4.83;;
13720;SDS011;6932;51.438;5.470;2024-01-16T04:33:31;11.30;;;3.80;;
13720;SDS011;6932;51.438;5.470;2024-01-16T04:35:57;11.83;;;4.57;;
13720;SDS011;6932;51.438;5.470;2024-01-16T04:38:23;8.60;;;4.33;;
13720;SDS011;6932;51.438;5.470;2024-01-16T04:40:49;9.90;;;4.03;;
13720;SDS011;6932;51.438;5.470;2024-01-16T04:43:15;7.23;;;3.70;;
13720;SDS011;6932;51.438;5.470;2024-01-16T04:45:41;10.83;;;4.40;;
13720;SDS011;6932;51.438;5.470;2024-01-16T04:48:06;7.73;;;3.83;;
13720;SDS011;6932;51.438;5.470;2024-01-16T04:50:35;9.53;;;3.93;;
13720;SDS011;6932;51.438;5.470;2024-01-16T04:53:01;7.87;;;3.47;;
13720;SDS011;6932;51.438;5.470;2024-01-16T04:55:27;8.83;;;3.80;;
13720;SDS011;6932;51.438;5.470;2024-01-16T04:57:54;10.03;;;3.80;;
13720;SDS011;6932;51.438;5.470;2024-01-16T05:00:21;11.23;;;4.00;;
13720;SDS011;6932;51.438;5.470;2024-01-16T05:02:47;9.63;;;3.30;;
13720;SDS011;6932;51.438;5.470;2024-01-16T05:05:13;7.87;;;3.77;;
13720;SDS011;6932;51.438;5.470;2024-01-16T05:07:39;9.73;;;4.00;;
13720;SDS011;6932;51.438;5.470;2024-01-16T05:10:06;11.03;;;3.40;;
13720;SDS011;6932;51.438;5.470;2024-01-16T05:12:35;8.10;;;3.43;;
13720;SDS011;6932;51.438;5.470;2024-01-16T05:15:01;9.77;;;3.70;;
13720;SDS011;6932;51.438;5.470;2024-01-16T05:17:27;8.90;;;4.00;;
13720;SDS011;6932;51.438;5.470;2024-01-16T05:19:52;6.83;;;3.13;;
13720;SDS011;6932;51.438;5.470;2024-01-16T05:22:18;10.13;;;3.43;;
13720;SDS011;6932;51.438;5.470;2024-01-16T05:24:44;7.60;;;3.30;;
13720;SDS011;6932;51.438;5.470;2024-01-16T05:27:10;7.57;;;3.53;;
13720;SDS011;6932;51.438;5.470;2024-01-16T05:29:35;10.67;;;3.90;;
13720;SDS011;6932;51.438;5.470;2024-01-16T05:32:04;8.30;;;3.40;;
13720;SDS011;6932;51.438;5.470;2024-01-16T05:34:30;8.97;;;3.77;;
13720;SDS011;6932;51.438;5.470;2024-01-16T05:36:55;7.93;;;3.40;;
13720;SDS011;6932;51.438;5.470;2024-01-16T05:39:21;7.93;;;3.20;;
13720;SDS011;6932;51.438;5.470;2024-01-16T05:41:47;9.17;;;3.30;;
13720;SDS011;6932;51.438;5.470;2024-01-16T05:44:13;8.00;;;3.20;;
13720;SDS011;6932;51.438;5.470;2024-01-16T05:46:38;8.83;;;3.70;;
13720;SDS011;6932;51.438;5.470;2024-01-16T05:49:04;9.37;;;4.10;;
13720;SDS011;6932;51.438;5.470;2024-01-16T05:51:30;6.20;;;3.00;;
13720;SDS011;6932;51.438;5.470;2024-01-16T05:53:56;8.23;;;3.00;;
13720;SDS011;6932;51.438;5.470;2024-01-16T05:56:22;8.77;;;3.63;;
13720;SDS011;6932;51.438;5.470;2024-01-16T05:58:47;10.07;;;3.57;;
13720;SDS011;6932;51.438;5.470;2024-01-16T06:01:13;8.67;;;3.37;;
13720;SDS011;6932;51.438;5.470;2024-01-16T06:03:39;9.57;;;3.43;;
13720;SDS011;6932;51.438;5.470;2024-01-16T06:06:06;11.23;;;3.30;;
13720;SDS011;6932;51.438;5.470;2024-01-16T06:08:32;8.43;;;3.20;;
13720;SDS011;6932;51.438;5.470;2024-01-16T06:10:58;7.07;;;3.27;;
13720;SDS011;6932;51.438;5.470;2024-01-16T06:13:25;8.37;;;3.40;;
13720;SDS011;6932;51.438;5.470;2024-01-16T06:15:50;8.30;;;3.60;;
13720;SDS011;6932;51.438;5.470;2024-01-16T06:18:16;6.93;;;3.40;;
13720;SDS011;6932;51.438;5.470;2024-01-16T06:20:42;7.17;;;3.33;;
13720;SDS011;6932;51.438;5.470;2024-01-16T06:23:08;6.90;;;3.43;;
13720;SDS011;6932;51.438;5.470;2024-01-16T06:25:33;8.40;;;3.30;;
13720;SDS011;6932;51.438;5.470;2024-01-16T06:27:59;7.53;;;3.33;;
13720;SDS011;6932;51.438;5.470;2024-01-16T06:30:25;7.57;;;3.00;;
13720;SDS011;6932;51.438;5.470;2024-01-16T06:32:51;8.33;;;3.47;;
13720;SDS011;6932;51.438;5.470;2024-01-16T06:35:16;6.63;;;3.30;;
13720;SDS011;6932;51.438;5.470;2024-01-16T06:37:43;10.87;;;3.20;;
13720;SDS011;6932;51.438;5.470;2024-01-16T06:40:09;9.03;;;3.40;;
13720;SDS011;6932;51.438;5.470;2024-01-16T06:42:35;9.53;;;3.50;;
13720;SDS011;6932;51.438;5.470;2024-01-16T06:45:01;7.70;;;3.20;;
13720;SDS011;6932;51.438;5.470;2024-01-16T06:47:28;8.60;;;3.63;;
13720;SDS011;6932;51.438;5.470;2024-01-16T06:49:54;7.40;;;2.93;;
13720;SDS011;6932;51.438;5.470;2024-01-16T06:52:19;7.27;;;3.47;;
13720;SDS011;6932;51.438;5.470;2024-01-16T06:54:45;7.47;;;3.40;;
13720;SDS011;6932;51.438;5.470;2024-01-16T06:57:11;9.20;;;3.23;;
13720;SDS011;6932;51.438;5.470;2024-01-16T06:59:37;12.30;;;3.50;;
13720;SDS011;6932;51.438;5.470;2024-01-16T07:02:03;8.23;;;3.33;;
13720;SDS011;6932;51.438;5.470;2024-01-16T07:04:28;8.33;;;3.33;;
13720;SDS011;6932;51.438;5.470;2024-01-16T07:06:54;8.43;;;3.20;;
13720;SDS011;6932;51.438;5.470;2024-01-16T07:09:20;5.07;;;2.90;;
13720;SDS011;6932;51.438;5.470;2024-01-16T07:11:46;5.30;;;3.03;;
13720;SDS011;6932;51.438;5.470;2024-01-16T07:14:12;9.60;;;3.20;;
13720;SDS011;6932;51.438;5.470;2024-01-16T07:16:38;7.17;;;3.00;;
13720;SDS011;6932;51.438;5.470;2024-01-16T07:19:04;9.97;;;3.20;;
13720;SDS011;6932;51.438;5.470;2024-01-16T07:21:30;6.83;;;3.10;;
13720;SDS011;6932;51.438;5.470;2024-01-16T07:23:56;8.87;;;3.33;;
13720;SDS011;6932;51.438;5.470;2024-01-16T07:26:23;6.47;;;2.90;;
13720;SDS011;6932;51.438;5.470;2024-01-16T07:28:49;7.43;;;3.23;;
13720;SDS011;6932;51.438;5.470;2024-01-16T07:31:15;9.00;;;3.37;;
13720;SDS011;6932;51.438;5.470;2024-01-16T07:33:41;8.23;;;3.60;;
13720;SDS011;6932;51.438;5.470;2024-01-16T07:36:08;9.13;;;3.37;;
13720;SDS011;6932;51.438;5.470;2024-01-16T07:38:34;6.97;;;3.33;;
13720;SDS011;6932;51.438;5.470;2024-01-16T07:41:04;9.27;;;3.20;;
13720;SDS011;6932;51.438;5.470;2024-01-16T07:43:30;10.47;;;3.30;;
13720;SDS011;6932;51.438;5.470;2024-01-16T07:45:57;6.47;;;3.27;;
13720;SDS011;6932;51.438;5.470;2024-01-16T07:48:23;9.03;;;3.40;;
13720;SDS011;6932;51.438;5.470;2024-01-16T07:50:49;11.17;;;3.23;;
13720;SDS011;6932;51.438;5.470;2024-01-16T07:53:15;7.23;;;3.27;;
13720;SDS011;6932;51.438;5.470;2024-01-16T07:55:41;10.70;;;3.37;;
13720;SDS011;6932;51.438;5.470;2024-01-16T07:58:09;9.87;;;3.80;;
13720;SDS011;6932;51.438;5.470;2024-01-16T08:00:36;9.53;;;3.50;;
13720;SDS011;6932;51.438;5.470;2024-01-16T08:03:02;7.77;;;3.53;;
13720;SDS011;6932;51.438;5.470;2024-01-16T08:05:29;7.77;;;3.60;;
13720;SDS011;6932;51.438;5.470;2024-01-16T08:07:55;7.20;;;3.70;;
13720;SDS011;6932;51.438;5.470;2024-01-16T08:10:22;7.93;;;3.80;;
13720;SDS011;6932;51.438;5.470;2024-01-16T08:12:48;7.47;;;3.73;;
13720;SDS011;6932;51.438;5.470;2024-01-16T08:15:14;9.83;;;3.77;;
13720;SDS011;6932;51.438;5.470;2024-01-16T08:17:40;10.30;;;4.37;;
13720;SDS011;6932;51.438;5.470;2024-01-16T08:20:06;13.27;;;4.47;;
13720;SDS011;6932;51.438;5.470;2024-01-16T08:22:37;9.43;;;4.20;;
13720;SDS011;6932;51.438;5.470;2024-01-16T08:25:03;9.60;;;4.37;;
13720;SDS011;6932;51.438;5.470;2024-01-16T08:27:30;8.70;;;3.63;;
13720;SDS011;6932;51.438;5.470;2024-01-16T08:29:56;9.90;;;3.67;;
13720;SDS011;6932;51.438;5.470;2024-01-16T08:32:22;8.70;;;3.63;;
13720;SDS011;6932;51.438;5.470;2024-01-16T08:34:48;9.03;;;3.90;;
13720;SDS011;6932;51.438;5.470;2024-01-16T08:37:13;9.90;;;4.00;;
13720;SDS011;6932;51.438;5.470;2024-01-16T08:39:39;9.50;;;3.90;;
13720;SDS011;6932;51.438;5.470;2024-01-16T08:42:05;8.37;;;3.77;;
13720;SDS011;6932;51.438;5.470;2024-01-16T08:44:31;6.53;;;3.60;;
13720;SDS011;6932;51.438;5.470;2024-01-16T08:46:56;10.93;;;3.90;;
13720;SDS011;6932;51.438;5.470;2024-01-16T08:49:24;8.40;;;3.87;;
13720;SDS011;6932;51.438;5.470;2024-01-16T08:51:50;8.93;;;3.53;;
13720;SDS011;6932;51.438;5.470;2024-01-16T08:54:15;7.80;;;3.70;;
13720;SDS011;6932;51.438;5.470;2024-01-16T08:56:41;7.63;;;3.73;;
13720;SDS011;6932;51.438;5.470;2024-01-16T08:59:07;8.53;;;3.90;;
13720;SDS011;6932;51.438;5.470;2024-01-16T09:01:33;9.03;;;3.63;;
13720;SDS011;6932;51.438;5.470;2024-01-16T09:03:59;11.40;;;3.97;;
13720;SDS011;6932;51.438;5.470;2024-01-16T09:06:24;7.67;;;3.90;;
13720;SDS011;6932;51.438;5.470;2024-01-16T09:08:50;7.50;;;3.43;;
13720;SDS011;6932;51.438;5.470;2024-01-16T09:11:16;9.10;;;4.00;;
13720;SDS011;6932;51.438;5.470;2024-01-16T09:13:42;9.03;;;3.53;;
13720;SDS011;6932;51.438;5.470;2024-01-16T09:16:08;10.20;;;3.87;;
13720;SDS011;6932;51.438;5.470;2024-01-16T09:18:34;7.47;;;3.90;;
13720;SDS011;6932;51.438;5.470;2024-01-16T09:21:00;9.67;;;3.50;;
13720;SDS011;6932;51.438;5.470;2024-01-16T09:23:25;6.77;;;3.57;;
13720;SDS011;6932;51.438;5.470;2024-01-16T09:25:51;7.33;;;3.67;;
13720;SDS011;6932;51.438;5.470;2024-01-16T09:28:17;8.87;;;3.80;;
13720;SDS011;6932;51.438;5.470;2024-01-16T09:30:43;8.07;;;3.90;;
13720;SDS011;6932;51.438;5.470;2024-01-16T09:33:09;8.43;;;4.00;;
13720;SDS011;6932;51.438;5.470;2024-01-16T09:35:35;8.10;;;3.77;;
13720;SDS011;6932;51.438;5.470;2024-01-16T09:38:01;6.80;;;3.77;;
13720;SDS011;6932;51.438;5.470;2024-01-16T09:40:30;8.47;;;3.90;;
13720;SDS011;6932;51.438;5.470;2024-01-16T09:42:56;10.33;;;4.13;;
13720;SDS011;6932;51.438;5.470;2024-01-16T09:45:22;8.77;;;4.30;;
13720;SDS011;6932;51.438;5.470;2024-01-16T09:47:50;8.50;;;3.97;;
13720;SDS011;6932;51.438;5.470;2024-01-16T09:50:17;9.73;;;4.20;;
13720;SDS011;6932;51.438;5.470;2024-01-16T09:52:47;7.93;;;3.60;;
13720;SDS011;6932;51.438;5.470;2024-01-16T09:55:14;7.60;;;3.43;;
13720;SDS011;6932;51.438;5.470;2024-01-16T09:57:41;8.23;;;3.97;;
13720;SDS011;6932;51.438;5.470;2024-01-16T10:00:11;9.23;;;4.00;;
13720;SDS011;6932;51.438;5.470;2024-01-16T10:02:41;9.33;;;4.00;;
13720;SDS011;6932;51.438;5.470;2024-01-16T10:05:07;10.07;;;4.30;;
13720;SDS011;6932;51.438;5.470;2024-01-16T10:07:39;9.87;;;4.30;;
13720;SDS011;6932;51.438;5.470;2024-01-16T10:10:09;8.53;;;4.10;;
13720;SDS011;6932;51.438;5.470;2024-01-16T10:12:35;8.27;;;4.13;;
13720;SDS011;6932;51.438;5.470;2024-01-16T10:15:05;8.90;;;4.10;;
13720;SDS011;6932;51.438;5.470;2024-01-16T10:17:39;7.57;;;3.93;;
13720;SDS011;6932;51.438;5.470;2024-01-16T10:20:09;10.73;;;4.20;;
13720;SDS011;6932;51.438;5.470;2024-01-16T10:22:41;8.10;;;4.10;;
13720;SDS011;6932;51.438;5.470;2024-01-16T10:25:20;7.37;;;4.10;;
13720;SDS011;6932;51.438;5.470;2024-01-16T10:27:47;8.10;;;4.37;;
13720;SDS011;6932;51.438;5.470;2024-01-16T10:30:13;8.07;;;4.40;;
13720;SDS011;6932;51.438;5.470;2024-01-16T10:32:40;8.13;;;4.20;;
13720;SDS011;6932;51.438;5.470;2024-01-16T10:35:08;7.90;;;4.17;;
13720;SDS011;6932;51.438;5.470;2024-01-16T10:37:51;8.07;;;4.77;;
13720;SDS011;6932;51.438;5.470;2024-01-16T10:40:19;9.13;;;4.63;;
13720;SDS011;6932;51.438;5.470;2024-01-16T10:42:56;8.13;;;4.27;;
13720;SDS011;6932;51.438;5.470;2024-01-16T10:45:28;8.57;;;4.10;;
13720;SDS011;6932;51.438;5.470;2024-01-16T10:48:04;9.30;;;4.43;;
13720;SDS011;6932;51.438;5.470;2024-01-16T10:50:32;10.27;;;4.10;;
13720;SDS011;6932;51.438;5.470;2024-01-16T10:53:00;9.60;;;4.20;;
13720;SDS011;6932;51.438;5.470;2024-01-16T10:55:30;7.33;;;4.00;;
13720;SDS011;6932;51.438;5.470;2024-01-16T10:58:20;8.83;;;4.30;;
13720;SDS011;6932;51.438;5.470;2024-01-16T11:00:48;9.40;;;4.10;;
13720;SDS011;6932;51.438;5.470;2024-01-16T11:03:24;8.97;;;3.90;;
13720;SDS011;6932;51.438;5.470;2024-01-16T11:06:04;9.23;;;4.20;;
13720;SDS011;6932;51.438;5.470;2024-01-16T11:08:35;8.23;;;4.20;;
13720;SDS011;6932;51.438;5.470;2024-01-16T11:11:02;8.43;;;4.03;;
13720;SDS011;6932;51.438;5.470;2024-01-16T11:13:34;8.87;;;3.90;;
13720;SDS011;6932;51.438;5.470;2024-01-16T11:16:04;9.73;;;3.73;;
13720;SDS011;6932;51.438;5.470;2024-01-16T11:18:32;7.67;;;4.03;;
13720;SDS011;6932;51.438;5.470;2024-01-16T11:20:59;7.47;;;3.77;;
13720;SDS011;6932;51.438;5.470;2024-01-16T11:23:29;7.50;;;4.03;;
13720;SDS011;6932;51.438;5.470;2024-01-16T11:25:55;9.50;;;4.37;;
13720;SDS011;6932;51.438;5.470;2024-01-16T11:28:21;10.90;;;4.30;;
13720;SDS011;6932;51.438;5.470;2024-01-16T11:30:56;9.50;;;3.97;;
13720;SDS011;6932;51.438;5.470;2024-01-16T11:35:56;8.13;;;4.00;;
13720;SDS011;6932;51.438;5.470;2024-01-16T11:38:23;9.10;;;4.40;;
13720;SDS011;6932;51.438;5.470;2024-01-16T11:40:54;8.40;;;3.80;;
13720;SDS011;6932;51.438;5.470;2024-01-16T11:46:05;8.93;;;3.90;;
13720;SDS011;6932;51.438;5.470;2024-01-16T11:48:32;8.17;;;4.10;;
13720;SDS011;6932;51.438;5.470;2024-01-16T11:50:59;7.80;;;4.37;;
13720;SDS011;6932;51.438;5.470;2024-01-16T12:02:20;8.20;;;4.40;;
13720;SDS011;6932;51.438;5.470;2024-01-16T12:05:02;9.43;;;4.37;;
13720;SDS011;6932;51.438;5.470;2024-01-16T12:07:41;9.73;;;4.40;;
13720;SDS011;6932;51.438;5.470;2024-01-16T12:10:14;7.30;;;3.87;;
13720;SDS011;6932;51.438;5.470;2024-01-16T12:12:42;8.23;;;4.13;;
13720;SDS011;6932;51.438;5.470;2024-01-16T12:15:12;7.73;;;4.07;;
13720;SDS011;6932;51.438;5.470;2024-01-16T12:17:55;9.77;;;4.17;;
13720;SDS011;6932;51.438;5.470;2024-01-16T12:20:25;9.37;;;4.53;;
13720;SDS011;6932;51.438;5.470;2024-01-16T12:22:56;8.97;;;4.20;;
13720;SDS011;6932;51.438;5.470;2024-01-16T12:25:28;7.27;;;3.77;;
13720;SDS011;6932;51.438;5.470;2024-01-16T12:28:00;7.03;;;3.90;;
13720;SDS011;6932;51.438;5.470;2024-01-16T12:30:30;7.47;;;3.60;;
13720;SDS011;6932;51.438;5.470;2024-01-16T12:33:07;7.20;;;3.90;;
13720;SDS011;6932;51.438;5.470;2024-01-16T12:35:36;10.07;;;4.03;;
13720;SDS011;6932;51.438;5.470;2024-01-16T12:38:06;8.30;;;4.17;;
13720;SDS011;6932;51.438;5.470;2024-01-16T12:40:34;9.80;;;3.87;;
13720;SDS011;6932;51.438;5.470;2024-01-16T12:43:02;8.53;;;3.90;;
13720;SDS011;6932;51.438;5.470;2024-01-16T12:45:29;11.17;;;4.30;;
13720;SDS011;6932;51.438;5.470;2024-01-16T12:47:56;8.87;;;4.00;;
13720;SDS011;6932;51.438;5.470;2024-01-16T12:50:25;8.70;;;3.93;;
13720;SDS011;6932;51.438;5.470;2024-01-16T12:55:35;8.10;;;3.83;;
13720;SDS011;6932;51.438;5.470;2024-01-16T12:58:21;9.20;;;4.10;;
13720;SDS011;6932;51.438;5.470;2024-01-16T13:00:52;9.67;;;3.97;;
13720;SDS011;6932;51.438;5.470;2024-01-16T13:03:18;6.60;;;3.60;;
13720;SDS011;6932;51.438;5.470;2024-01-16T13:05:54;7.80;;;3.70;;
13720;SDS011;6932;51.438;5.470;2024-01-16T13:08:22;8.13;;;4.13;;
13720;SDS011;6932;51.438;5.470;2024-01-16T13:11:05;7.60;;;3.83;;
13720;SDS011;6932;51.438;5.470;2024-01-16T13:13:36;6.40;;;3.90;;
13720;SDS011;6932;51.438;5.470;2024-01-16T13:16:03;8.57;;;4.00;;
13720;SDS011;6932;51.438;5.470;2024-01-16T13:18:33;7.40;;;3.93;;
13720;SDS011;6932;51.438;5.470;2024-01-16T13:21:00;7.23;;;4.00;;
13720;SDS011;6932;51.438;5.470;2024-01-16T13:23:26;8.30;;;3.97;;
13720;SDS011;6932;51.438;5.470;2024-01-16T13:25:54;7.87;;;3.80;;
13720;SDS011;6932;51.438;5.470;2024-01-16T13:28:22;7.53;;;3.80;;
13720;SDS011;6932;51.438;5.470;2024-01-16T13:30:49;8.50;;;3.60;;
13720;SDS011;6932;51.438;5.470;2024-01-16T13:33:15;6.50;;;3.60;;
13720;SDS011;6932;51.438;5.470;2024-01-16T13:35:42;8.47;;;3.87;;
13720;SDS011;6932;51.438;5.470;2024-01-16T13:38:11;6.40;;;3.63;;
13720;SDS011;6932;51.438;5.470;2024-01-16T13:40:38;6.87;;;3.60;;
13720;SDS011;6932;51.438;5.470;2024-01-16T13:43:04;8.60;;;3.63;;
13720;SDS011;6932;51.438;5.470;2024-01-16T13:45:31;15.40;;;4.27;;
13720;SDS011;6932;51.438;5.470;2024-01-16T13:47:58;10.63;;;3.83;;
13720;SDS011;6932;51.438;5.470;2024-01-16T13:50:26;5.83;;;3.40;;
13720;SDS011;6932;51.438;5.470;2024-01-16T13:52:52;8.47;;;3.90;;
13720;SDS011;6932;51.438;5.470;2024-01-16T13:55:19;7.90;;;3.70;;
13720;SDS011;6932;51.438;5.470;2024-01-16T13:57:45;7.57;;;4.00;;
13720;SDS011;6932;51.438;5.470;2024-01-16T14:00:12;9.37;;;4.30;;
13720;SDS011;6932;51.438;5.470;2024-01-16T14:02:40;9.00;;;3.77;;
13720;SDS011;6932;51.438;5.470;2024-01-16T14:05:14;8.70;;;3.87;;
13720;SDS011;6932;51.438;5.470;2024-01-16T14:07:44;8.50;;;4.10;;
13720;SDS011;6932;51.438;5.470;2024-01-16T14:10:15;8.60;;;3.60;;
13720;SDS011;6932;51.438;5.470;2024-01-16T14:12:42;10.00;;;4.17;;
13720;SDS011;6932;51.438;5.470;2024-01-16T14:15:13;9.30;;;3.70;;
13720;SDS011;6932;51.438;5.470;2024-01-16T14:17:45;9.50;;;4.20;;
13720;SDS011;6932;51.438;5.470;2024-01-16T14:20:13;7.37;;;3.60;;
13720;SDS011;6932;51.438;5.470;2024-01-16T14:22:41;7.90;;;3.80;;
13720;SDS011;6932;51.438;5.470;2024-01-16T14:25:11;7.67;;;3.77;;
13720;SDS011;6932;51.438;5.470;2024-01-16T14:30:07;7.40;;;3.50;;
13720;SDS011;6932;51.438;5.470;2024-01-16T14:32:42;8.70;;;4.20;;
13720;SDS011;6932;51.438;5.470;2024-01-16T14:35:10;7.90;;;4.00;;
13720;SDS011;6932;51.438;5.470;2024-01-16T14:37:38;11.33;;;4.23;;
13720;SDS011;6932;51.438;5.470;2024-01-16T14:40:06;9.37;;;4.17;;
13720;SDS011;6932;51.438;5.470;2024-01-16T14:42:45;9.33;;;4.07;;
13720;SDS011;6932;51.438;5.470;2024-01-16T14:45:16;9.70;;;4.10;;
13720;SDS011;6932;51.438;5.470;2024-01-16T14:47:44;8.87;;;4.10;;
13720;SDS011;6932;51.438;5.470;2024-01-16T14:50:10;8.77;;;3.80;;
13720;SDS011;6932;51.438;5.470;2024-01-16T14:52:38;8.10;;;3.87;;
13720;SDS011;6932;51.438;5.470;2024-01-16T14:55:05;9.77;;;3.70;;
13720;SDS011;6932;51.438;5.470;2024-01-16T14:57:34;7.37;;;3.67;;
13720;SDS011;6932;51.438;5.470;2024-01-16T15:00:12;6.90;;;3.57;;
13720;SDS011;6932;51.438;5.470;2024-01-16T15:02:51;9.63;;;3.80;;
13720;SDS011;6932;51.438;5.470;2024-01-16T15:05:18;9.00;;;3.90;;
13720;SDS011;6932;51.438;5.470;2024-01-16T15:07:45;8.87;;;3.60;;
13720;SDS011;6932;51.438;5.470;2024-01-16T15:10:12;8.33;;;3.57;;
13720;SDS011;6932;51.438;5.470;2024-01-16T15:12:40;8.13;;;3.67;;
13720;SDS011;6932;51.438;5.470;2024-01-16T15:15:10;6.73;;;3.70;;
13720;SDS011;6932;51.438;5.470;2024-01-16T15:17:38;7.27;;;3.50;;
13720;SDS011;6932;51.438;5.470;2024-01-16T15:20:05;6.47;;;3.37;;
13720;SDS011;6932;51.438;5.470;2024-01-16T15:22:43;10.20;;;4.90;;